sensor_id;sensor_type;location;lat;lon;timestamp;temperature;humidity
54192;DHT22;40101;53.002;6.488;2023-05-07T08:40:55;14.00;99.90
54192;DHT22;40101;53.002;6.488;2023-05-07T08:43:21;13.90;99.90
54192;DHT22;40101;53.002;6.488;2023-05-07T08:45:49;13.80;99.90
54192;DHT22;40101;53.002;6.488;2023-05-07T08:48:21;13.80;99.90
54192;DHT22;40101;53.002;6.488;2023-05-07T08:50:47;13.80;99.90
54192;DHT22;40101;53.002;6.488;2023-05-07T08:53:13;13.90;99.90
54192;DHT22;40101;53.002;6.488;2023-05-07T08:55:40;14.30;99.90
54192;DHT22;40101;53.002;6.488;2023-05-07T08:58:05;14.40;99.90
54192;DHT22;40101;53.002;6.488;2023-05-07T09:00:32;14.50;99.90
54192;DHT22;40101;53.002;6.488;2023-05-07T09:02:58;14.50;99.90
54192;DHT22;40101;53.002;6.488;2023-05-07T09:05:23;14.60;99.90
54192;DHT22;40101;53.002;6.488;2023-05-07T09:07:49;14.70;99.90
54192;DHT22;40101;53.002;6.488;2023-05-07T09:10:15;14.70;99.90
54192;DHT22;40101;53.002;6.488;2023-05-07T09:12:41;14.90;99.90
54192;DHT22;40101;53.002;6.488;2023-05-07T09:15:07;15.10;99.90
54192;DHT22;40101;53.002;6.488;2023-05-07T09:17:33;15.40;99.90
54192;DHT22;40101;53.002;6.488;2023-05-07T09:20:05;15.60;99.90
54192;DHT22;40101;53.002;6.488;2023-05-07T09:22:32;15.90;99.90
54192;DHT22;40101;53.002;6.488;2023-05-07T09:24:58;16.20;99.90
54192;DHT22;40101;53.002;6.488;2023-05-07T09:27:25;16.50;99.90
54192;DHT22;40101;53.002;6.488;2023-05-07T09:29:51;16.70;99.90
54192;DHT22;40101;53.002;6.488;2023-05-07T09:32:17;17.10;99.90
54192;DHT22;40101;53.002;6.488;2023-05-07T09:34:43;17.30;99.90
54192;DHT22;40101;53.002;6.488;2023-05-07T09:37:10;17.30;99.90
54192;DHT22;40101;53.002;6.488;2023-05-07T09:39:48;17.60;99.90
54192;DHT22;40101;53.002;6.488;2023-05-07T09:42:15;17.30;99.90
54192;DHT22;40101;53.002;6.488;2023-05-07T09:44:41;17.20;99.90
54192;DHT22;40101;53.002;6.488;2023-05-07T09:47:08;17.10;99.90
54192;DHT22;40101;53.002;6.488;2023-05-07T09:49:37;17.10;99.90
54192;DHT22;40101;53.002;6.488;2023-05-07T09:52:05;17.00;99.90
54192;DHT22;40101;53.002;6.488;2023-05-07T09:54:33;17.10;99.90
54192;DHT22;40101;53.002;6.488;2023-05-07T09:56:59;17.30;99.90
54192;DHT22;40101;53.002;6.488;2023-05-07T09:59:28;17.60;99.90
54192;DHT22;40101;53.002;6.488;2023-05-07T10:01:57;17.80;99.90
54192;DHT22;40101;53.002;6.488;2023-05-07T10:04:25;18.10;99.90
54192;DHT22;40101;53.002;6.488;2023-05-07T10:06:52;18.20;99.90
54192;DHT22;40101;53.002;6.488;2023-05-07T10:09:19;18.10;99.90
54192;DHT22;40101;53.002;6.488;2023-05-07T10:11:45;18.30;99.90
54192;DHT22;40101;53.002;6.488;2023-05-07T10:14:11;18.50;99.90
54192;DHT22;40101;53.002;6.488;2023-05-07T10:16:37;18.70;99.90
54192;DHT22;40101;53.002;6.488;2023-05-07T10:19:04;18.50;99.90
54192;DHT22;40101;53.002;6.488;2023-05-07T10:21:30;18.40;99.90
54192;DHT22;40101;53.002;6.488;2023-05-07T10:23:59;18.40;99.90
54192;DHT22;40101;53.002;6.488;2023-05-07T10:26:27;18.50;99.90
54192;DHT22;40101;53.002;6.488;2023-05-07T10:29:11;18.70;99.90
54192;DHT22;40101;53.002;6.488;2023-05-07T10:31:50;18.60;99.90
54192;DHT22;40101;53.002;6.488;2023-05-07T10:34:20;18.40;99.90
54192;DHT22;40101;53.002;6.488;2023-05-07T10:36:48;18.60;99.90
54192;DHT22;40101;53.002;6.488;2023-05-07T10:39:14;18.70;99.90
54192;DHT22;40101;53.002;6.488;2023-05-07T10:41:40;18.70;99.90
54192;DHT22;40101;53.002;6.488;2023-05-07T10:44:05;18.60;99.90
54192;DHT22;40101;53.002;6.488;2023-05-07T10:46:31;18.80;99.90
54192;DHT22;40101;53.002;6.488;2023-05-07T10:51:26;18.60;99.90
54192;DHT22;40101;53.002;6.488;2023-05-07T10:54:24;18.50;99.90
54192;DHT22;40101;53.002;6.488;2023-05-07T10:56:50;18.40;99.90
54192;DHT22;40101;53.002;6.488;2023-05-07T11:02:00;18.30;99.90
54192;DHT22;40101;53.002;6.488;2023-05-07T11:04:30;18.40;99.90
54192;DHT22;40101;53.002;6.488;2023-05-07T11:15:10;18.30;99.90
54192;DHT22;40101;53.002;6.488;2023-05-07T11:18:02;18.30;99.90
54192;DHT22;40101;53.002;6.488;2023-05-07T11:20:50;18.40;99.90
54192;DHT22;40101;53.002;6.488;2023-05-07T11:26:04;18.50;99.90
54192;DHT22;40101;53.002;6.488;2023-05-07T11:28:32;18.40;99.90
54192;DHT22;40101;53.002;6.488;2023-05-07T11:31:02;18.50;99.90
54192;DHT22;40101;53.002;6.488;2023-05-07T11:33:29;18.40;99.90
54192;DHT22;40101;53.002;6.488;2023-05-07T11:35:56;18.40;99.90
54192;DHT22;40101;53.002;6.488;2023-05-07T11:38:22;18.40;99.90
54192;DHT22;40101;53.002;6.488;2023-05-07T11:40:56;18.30;99.90
54192;DHT22;40101;53.002;6.488;2023-05-07T11:43:22;18.30;99.90
54192;DHT22;40101;53.002;6.488;2023-05-07T11:45:48;18.30;99.90
54192;DHT22;40101;53.002;6.488;2023-05-07T11:48:15;18.20;99.90
54192;DHT22;40101;53.002;6.488;2023-05-07T11:51:03;18.20;99.90
54192;DHT22;40101;53.002;6.488;2023-05-07T11:53:39;18.30;99.90
54192;DHT22;40101;53.002;6.488;2023-05-07T11:56:09;18.30;99.90
54192;DHT22;40101;53.002;6.488;2023-05-07T11:58:35;18.40;99.90
54192;DHT22;40101;53.002;6.488;2023-05-07T12:01:02;18.30;99.90
54192;DHT22;40101;53.002;6.488;2023-05-07T12:03:27;18.40;99.90
54192;DHT22;40101;53.002;6.488;2023-05-07T12:05:53;18.30;99.90
54192;DHT22;40101;53.002;6.488;2023-05-07T12:08:20;18.30;99.90
54192;DHT22;40101;53.002;6.488;2023-05-07T12:10:48;18.40;99.90
54192;DHT22;40101;53.002;6.488;2023-05-07T12:13:24;18.50;99.90
54192;DHT22;40101;53.002;6.488;2023-05-07T12:15:55;18.50;99.90
54192;DHT22;40101;53.002;6.488;2023-05-07T12:18:22;18.40;99.90
54192;DHT22;40101;53.002;6.488;2023-05-07T12:20:48;18.40;99.90
54192;DHT22;40101;53.002;6.488;2023-05-07T12:23:15;18.50;99.90
54192;DHT22;40101;53.002;6.488;2023-05-07T12:25:42;18.50;99.90
54192;DHT22;40101;53.002;6.488;2023-05-07T12:28:18;18.70;99.90
54192;DHT22;40101;53.002;6.488;2023-05-07T12:30:46;19.00;99.90
54192;DHT22;40101;53.002;6.488;2023-05-07T12:33:15;19.00;99.90
54192;DHT22;40101;53.002;6.488;2023-05-07T12:35:42;19.10;99.90
54192;DHT22;40101;53.002;6.488;2023-05-07T12:38:12;19.10;99.90
54192;DHT22;40101;53.002;6.488;2023-05-07T12:40:46;19.00;99.90
54192;DHT22;40101;53.002;6.488;2023-05-07T12:43:30;18.90;99.90
54192;DHT22;40101;53.002;6.488;2023-05-07T12:45:58;18.80;99.90
54192;DHT22;40101;53.002;6.488;2023-05-07T12:48:25;18.60;99.90
54192;DHT22;40101;53.002;6.488;2023-05-07T12:50:55;18.60;99.90
54192;DHT22;40101;53.002;6.488;2023-05-07T12:53:23;18.70;99.90
54192;DHT22;40101;53.002;6.488;2023-05-07T12:55:52;18.80;99.90
54192;DHT22;40101;53.002;6.488;2023-05-07T12:58:20;19.10;99.90
54192;DHT22;40101;53.002;6.488;2023-05-07T13:00:48;19.40;99.90
54192;DHT22;40101;53.002;6.488;2023-05-07T13:03:25;19.40;99.90
54192;DHT22;40101;53.002;6.488;2023-05-07T13:05:51;19.30;99.90
54192;DHT22;40101;53.002;6.488;2023-05-07T13:08:34;19.20;99.90
54192;DHT22;40101;53.002;6.488;2023-05-07T13:11:01;19.10;99.90
54192;DHT22;40101;53.002;6.488;2023-05-07T13:13:34;18.90;99.90
54192;DHT22;40101;53.002;6.488;2023-05-07T13:16:04;19.00;99.90
54192;DHT22;40101;53.002;6.488;2023-05-07T13:18:31;19.30;99.90
54192;DHT22;40101;53.002;6.488;2023-05-07T13:20:57;19.30;99.90
54192;DHT22;40101;53.002;6.488;2023-05-07T13:23:23;19.40;99.90
54192;DHT22;40101;53.002;6.488;2023-05-07T13:25:49;19.40;99.90
54192;DHT22;40101;53.002;6.488;2023-05-07T13:28:15;19.60;99.90
54192;DHT22;40101;53.002;6.488;2023-05-07T13:30:41;19.60;99.90
54192;DHT22;40101;53.002;6.488;2023-05-07T13:33:07;19.50;99.90
54192;DHT22;40101;53.002;6.488;2023-05-07T13:35:33;19.50;99.90
54192;DHT22;40101;53.002;6.488;2023-05-07T13:37:59;19.40;99.90
54192;DHT22;40101;53.002;6.488;2023-05-07T13:40:25;19.40;99.90
54192;DHT22;40101;53.002;6.488;2023-05-07T13:42:50;19.40;99.90
54192;DHT22;40101;53.002;6.488;2023-05-07T13:45:18;19.60;99.90
54192;DHT22;40101;53.002;6.488;2023-05-07T13:47:45;19.60;99.90
54192;DHT22;40101;53.002;6.488;2023-05-07T13:50:17;19.50;99.90
54192;DHT22;40101;53.002;6.488;2023-05-07T13:52:50;19.50;99.90
54192;DHT22;40101;53.002;6.488;2023-05-07T13:55:20;19.50;99.90
54192;DHT22;40101;53.002;6.488;2023-05-07T13:57:47;19.50;99.90
54192;DHT22;40101;53.002;6.488;2023-05-07T14:00:14;19.50;99.90
54192;DHT22;40101;53.002;6.488;2023-05-07T14:02:40;19.60;99.90
54192;DHT22;40101;53.002;6.488;2023-05-07T14:05:07;19.60;99.90
54192;DHT22;40101;53.002;6.488;2023-05-07T14:07:42;19.50;99.90
54192;DHT22;40101;53.002;6.488;2023-05-07T14:10:08;19.40;99.90
54192;DHT22;40101;53.002;6.488;2023-05-07T14:12:34;19.20;99.90
54192;DHT22;40101;53.002;6.488;2023-05-07T14:15:00;19.20;99.90
54192;DHT22;40101;53.002;6.488;2023-05-07T14:17:26;19.20;99.90
54192;DHT22;40101;53.002;6.488;2023-05-07T14:19:53;19.30;99.90
54192;DHT22;40101;53.002;6.488;2023-05-07T14:22:22;19.40;99.90
54192;DHT22;40101;53.002;6.488;2023-05-07T14:24:49;19.40;99.90
54192;DHT22;40101;53.002;6.488;2023-05-07T14:27:15;19.40;99.90
54192;DHT22;40101;53.002;6.488;2023-05-07T14:29:41;19.30;99.90
54192;DHT22;40101;53.002;6.488;2023-05-07T14:32:14;19.30;99.90
54192;DHT22;40101;53.002;6.488;2023-05-07T14:34:40;19.20;99.90
54192;DHT22;40101;53.002;6.488;2023-05-07T14:37:06;19.20;99.90
54192;DHT22;40101;53.002;6.488;2023-05-07T14:39:32;19.10;99.90
54192;DHT22;40101;53.002;6.488;2023-05-07T14:41:59;19.20;99.90
54192;DHT22;40101;53.002;6.488;2023-05-07T14:44:44;19.30;99.90
54192;DHT22;40101;53.002;6.488;2023-05-07T14:47:39;19.30;99.90
54192;DHT22;40101;53.002;6.488;2023-05-07T14:50:20;19.50;99.90
54192;DHT22;40101;53.002;6.488;2023-05-07T14:52:46;19.50;99.90
54192;DHT22;40101;53.002;6.488;2023-05-07T14:55:12;19.50;99.90
54192;DHT22;40101;53.002;6.488;2023-05-07T14:57:40;19.60;99.90
54192;DHT22;40101;53.002;6.488;2023-05-07T15:00:06;19.50;99.90
54192;DHT22;40101;53.002;6.488;2023-05-07T15:02:32;19.40;99.90
54192;DHT22;40101;53.002;6.488;2023-05-07T15:05:27;19.40;99.90
54192;DHT22;40101;53.002;6.488;2023-05-07T15:07:53;19.30;99.90
54192;DHT22;40101;53.002;6.488;2023-05-07T15:10:19;19.20;99.90
54192;DHT22;40101;53.002;6.488;2023-05-07T15:12:45;19.10;99.90
54192;DHT22;40101;53.002;6.488;2023-05-07T15:15:10;19.10;99.90
54192;DHT22;40101;53.002;6.488;2023-05-07T15:17:36;19.00;99.90
54192;DHT22;40101;53.002;6.488;2023-05-07T15:20:02;18.90;99.90
54192;DHT22;40101;53.002;6.488;2023-05-07T15:22:30;19.00;99.90
54192;DHT22;40101;53.002;6.488;2023-05-07T15:24:56;19.00;99.90
54192;DHT22;40101;53.002;6.488;2023-05-07T15:27:22;19.00;99.90
54192;DHT22;40101;53.002;6.488;2023-05-07T15:29:48;19.10;99.90
54192;DHT22;40101;53.002;6.488;2023-05-07T15:32:13;19.00;99.90
54192;DHT22;40101;53.002;6.488;2023-05-07T15:34:39;18.90;99.90
54192;DHT22;40101;53.002;6.488;2023-05-07T15:37:07;18.90;99.90
54192;DHT22;40101;53.002;6.488;2023-05-07T15:39:33;18.90;99.90
54192;DHT22;40101;53.002;6.488;2023-05-07T15:41:59;18.90;99.90
54192;DHT22;40101;53.002;6.488;2023-05-07T15:44:25;18.80;99.90
54192;DHT22;40101;53.002;6.488;2023-05-07T15:46:56;18.90;99.90
54192;DHT22;40101;53.002;6.488;2023-05-07T15:49:21;18.90;99.90
54192;DHT22;40101;53.002;6.488;2023-05-07T15:51:47;18.90;99.90
54192;DHT22;40101;53.002;6.488;2023-05-07T15:54:13;18.80;99.90
54192;DHT22;40101;53.002;6.488;2023-05-07T15:56:41;18.70;99.90
54192;DHT22;40101;53.002;6.488;2023-05-07T15:59:07;18.60;99.90
54192;DHT22;40101;53.002;6.488;2023-05-07T16:01:34;18.50;99.90
54192;DHT22;40101;53.002;6.488;2023-05-07T16:04:00;18.50;99.90
54192;DHT22;40101;53.002;6.488;2023-05-07T16:06:25;18.50;99.90
54192;DHT22;40101;53.002;6.488;2023-05-07T16:08:52;18.50;99.90
54192;DHT22;40101;53.002;6.488;2023-05-07T16:11:17;18.60;99.90
54192;DHT22;40101;53.002;6.488;2023-05-07T16:13:43;18.50;99.90
54192;DHT22;40101;53.002;6.488;2023-05-07T16:16:09;18.50;99.90
54192;DHT22;40101;53.002;6.488;2023-05-07T16:18:35;18.60;99.90
54192;DHT22;40101;53.002;6.488;2023-05-07T16:21:01;18.60;99.90
54192;DHT22;40101;53.002;6.488;2023-05-07T16:23:27;18.60;99.90
54192;DHT22;40101;53.002;6.488;2023-05-07T16:25:53;18.50;99.90
54192;DHT22;40101;53.002;6.488;2023-05-07T16:28:19;18.50;99.90
54192;DHT22;40101;53.002;6.488;2023-05-07T16:30:44;18.50;99.90
54192;DHT22;40101;53.002;6.488;2023-05-07T16:33:10;18.50;99.90
54192;DHT22;40101;53.002;6.488;2023-05-07T16:35:36;18.50;99.90
54192;DHT22;40101;53.002;6.488;2023-05-07T16:38:01;18.50;99.90
54192;DHT22;40101;53.002;6.488;2023-05-07T16:40:36;18.40;99.90
54192;DHT22;40101;53.002;6.488;2023-05-07T16:43:02;18.40;99.90
54192;DHT22;40101;53.002;6.488;2023-05-07T16:45:28;18.40;99.90
54192;DHT22;40101;53.002;6.488;2023-05-07T16:47:54;18.30;99.90
54192;DHT22;40101;53.002;6.488;2023-05-07T16:50:21;18.40;99.90
54192;DHT22;40101;53.002;6.488;2023-05-07T16:52:49;18.30;99.90
54192;DHT22;40101;53.002;6.488;2023-05-07T16:55:18;18.20;99.90
54192;DHT22;40101;53.002;6.488;2023-05-07T16:57:48;18.10;99.90
54192;DHT22;40101;53.002;6.488;2023-05-07T17:00:41;18.00;99.90
54192;DHT22;40101;53.002;6.488;2023-05-07T17:13:59;17.60;99.90
54192;DHT22;40101;53.002;6.488;2023-05-07T17:16:24;17.60;99.90
54192;DHT22;40101;53.002;6.488;2023-05-07T17:18:50;17.60;99.90
54192;DHT22;40101;53.002;6.488;2023-05-07T17:24:07;17.50;99.90
54192;DHT22;40101;53.002;6.488;2023-05-07T17:26:33;17.50;99.90
54192;DHT22;40101;53.002;6.488;2023-05-07T17:29:08;17.50;99.90
54192;DHT22;40101;53.002;6.488;2023-05-07T17:38:57;17.50;99.90
54192;DHT22;40101;53.002;6.488;2023-05-07T17:41:22;17.40;99.90
54192;DHT22;40101;53.002;6.488;2023-05-07T17:43:48;17.40;99.90
54192;DHT22;40101;53.002;6.488;2023-05-07T17:52:31;17.20;99.90
54192;DHT22;40101;53.002;6.488;2023-05-07T17:54:56;17.10;99.90
54192;DHT22;40101;53.002;6.488;2023-05-07T17:57:23;17.10;99.90
54192;DHT22;40101;53.002;6.488;2023-05-07T17:59:49;17.00;99.90
54192;DHT22;40101;53.002;6.488;2023-05-07T18:02:15;17.00;99.90
54192;DHT22;40101;53.002;6.488;2023-05-07T18:04:40;17.00;99.90
54192;DHT22;40101;53.002;6.488;2023-05-07T18:07:09;16.90;99.90
54192;DHT22;40101;53.002;6.488;2023-05-07T18:09:34;17.00;99.90
54192;DHT22;40101;53.002;6.488;2023-05-07T18:12:00;16.90;99.90
54192;DHT22;40101;53.002;6.488;2023-05-07T18:14:26;16.90;99.90
54192;DHT22;40101;53.002;6.488;2023-05-07T18:16:52;16.80;99.90
54192;DHT22;40101;53.002;6.488;2023-05-07T18:19:18;16.70;99.90
54192;DHT22;40101;53.002;6.488;2023-05-07T18:21:44;16.60;99.90
54192;DHT22;40101;53.002;6.488;2023-05-07T18:24:10;16.60;99.90
54192;DHT22;40101;53.002;6.488;2023-05-07T18:26:44;16.50;99.90
54192;DHT22;40101;53.002;6.488;2023-05-07T18:29:10;16.50;99.90
54192;DHT22;40101;53.002;6.488;2023-05-07T18:32:07;16.40;99.90
54192;DHT22;40101;53.002;6.488;2023-05-07T18:34:36;16.30;99.90
54192;DHT22;40101;53.002;6.488;2023-05-07T18:37:01;16.30;99.90
54192;DHT22;40101;53.002;6.488;2023-05-07T18:39:27;16.20;99.90
54192;DHT22;40101;53.002;6.488;2023-05-07T18:41:53;16.20;99.90
54192;DHT22;40101;53.002;6.488;2023-05-07T18:44:19;16.10;99.90
54192;DHT22;40101;53.002;6.488;2023-05-07T18:46:45;16.10;99.90
54192;DHT22;40101;53.002;6.488;2023-05-07T18:49:12;16.10;99.90
54192;DHT22;40101;53.002;6.488;2023-05-07T18:51:37;16.10;99.90
54192;DHT22;40101;53.002;6.488;2023-05-07T18:54:03;16.00;99.90
54192;DHT22;40101;53.002;6.488;2023-05-07T18:56:29;15.90;99.90
54192;DHT22;40101;53.002;6.488;2023-05-07T18:58:55;15.90;99.90
54192;DHT22;40101;53.002;6.488;2023-05-07T19:01:20;15.80;99.90
54192;DHT22;40101;53.002;6.488;2023-05-07T19:03:47;15.80;99.90
54192;DHT22;40101;53.002;6.488;2023-05-07T19:06:12;15.70;99.90
54192;DHT22;40101;53.002;6.488;2023-05-07T19:08:38;15.70;99.90
54192;DHT22;40101;53.002;6.488;2023-05-07T19:11:05;15.70;99.90
54192;DHT22;40101;53.002;6.488;2023-05-07T19:13:32;15.60;99.90
54192;DHT22;40101;53.002;6.488;2023-05-07T19:15:58;15.50;99.90
54192;DHT22;40101;53.002;6.488;2023-05-07T19:18:23;15.50;99.90
54192;DHT22;40101;53.002;6.488;2023-05-07T19:20:49;15.40;99.90
54192;DHT22;40101;53.002;6.488;2023-05-07T19:23:15;15.40;99.90
54192;DHT22;40101;53.002;6.488;2023-05-07T19:25:41;15.40;99.90
54192;DHT22;40101;53.002;6.488;2023-05-07T19:28:07;15.40;99.90
54192;DHT22;40101;53.002;6.488;2023-05-07T19:30:37;15.30;99.90
54192;DHT22;40101;53.002;6.488;2023-05-07T19:33:04;15.30;99.90
54192;DHT22;40101;53.002;6.488;2023-05-07T19:35:31;15.20;99.90
54192;DHT22;40101;53.002;6.488;2023-05-07T19:37:56;15.20;99.90
54192;DHT22;40101;53.002;6.488;2023-05-07T19:40:22;15.20;99.90
54192;DHT22;40101;53.002;6.488;2023-05-07T19:42:47;15.10;99.90
54192;DHT22;40101;53.002;6.488;2023-05-07T19:45:14;15.10;99.90
54192;DHT22;40101;53.002;6.488;2023-05-07T19:47:40;15.00;99.90
54192;DHT22;40101;53.002;6.488;2023-05-07T19:50:09;15.00;99.90
54192;DHT22;40101;53.002;6.488;2023-05-07T19:52:35;14.90;99.90
54192;DHT22;40101;53.002;6.488;2023-05-07T19:55:01;14.90;99.90
54192;DHT22;40101;53.002;6.488;2023-05-07T19:57:26;14.80;99.90
54192;DHT22;40101;53.002;6.488;2023-05-07T19:59:56;14.90;99.90
54192;DHT22;40101;53.002;6.488;2023-05-07T20:02:21;14.80;99.90
54192;DHT22;40101;53.002;6.488;2023-05-07T20:04:47;14.80;99.90
54192;DHT22;40101;53.002;6.488;2023-05-07T20:07:15;14.80;99.90
54192;DHT22;40101;53.002;6.488;2023-05-07T20:09:41;14.70;99.90
54192;DHT22;40101;53.002;6.488;2023-05-07T20:12:07;14.70;99.90
54192;DHT22;40101;53.002;6.488;2023-05-07T20:14:33;14.70;99.90
54192;DHT22;40101;53.002;6.488;2023-05-07T20:16:59;14.60;99.90
54192;DHT22;40101;53.002;6.488;2023-05-07T20:19:24;14.60;99.90
54192;DHT22;40101;53.002;6.488;2023-05-07T20:21:52;14.50;99.90
54192;DHT22;40101;53.002;6.488;2023-05-07T20:24:18;14.50;99.90
54192;DHT22;40101;53.002;6.488;2023-05-07T20:26:44;14.50;99.90
54192;DHT22;40101;53.002;6.488;2023-05-07T20:29:13;14.50;99.90
54192;DHT22;40101;53.002;6.488;2023-05-07T20:31:40;14.50;99.90
54192;DHT22;40101;53.002;6.488;2023-05-07T20:34:05;14.40;99.90
54192;DHT22;40101;53.002;6.488;2023-05-07T20:36:31;14.30;99.90
54192;DHT22;40101;53.002;6.488;2023-05-07T20:38:57;14.30;99.90
54192;DHT22;40101;53.002;6.488;2023-05-07T20:41:23;14.20;99.90
54192;DHT22;40101;53.002;6.488;2023-05-07T20:43:51;14.20;99.90
54192;DHT22;40101;53.002;6.488;2023-05-07T20:46:17;14.10;99.90
54192;DHT22;40101;53.002;6.488;2023-05-07T20:48:47;14.10;99.90
54192;DHT22;40101;53.002;6.488;2023-05-07T20:51:13;14.10;99.90
54192;DHT22;40101;53.002;6.488;2023-05-07T20:53:40;14.00;99.90
54192;DHT22;40101;53.002;6.488;2023-05-07T20:56:08;14.00;99.90
54192;DHT22;40101;53.002;6.488;2023-05-07T20:58:34;14.00;99.90
54192;DHT22;40101;53.002;6.488;2023-05-07T21:00:59;13.90;99.90
54192;DHT22;40101;53.002;6.488;2023-05-07T21:03:25;13.90;99.90
54192;DHT22;40101;53.002;6.488;2023-05-07T21:05:52;13.80;99.90
54192;DHT22;40101;53.002;6.488;2023-05-07T21:08:18;13.90;99.90
54192;DHT22;40101;53.002;6.488;2023-05-07T21:10:44;13.80;99.90
54192;DHT22;40101;53.002;6.488;2023-05-07T21:13:11;13.80;99.90
54192;DHT22;40101;53.002;6.488;2023-05-07T21:15:36;13.80;99.90
54192;DHT22;40101;53.002;6.488;2023-05-07T21:18:02;13.70;99.90
54192;DHT22;40101;53.002;6.488;2023-05-07T21:20:28;13.70;99.90
54192;DHT22;40101;53.002;6.488;2023-05-07T21:22:54;13.70;99.90
54192;DHT22;40101;53.002;6.488;2023-05-07T21:25:20;13.70;99.90
54192;DHT22;40101;53.002;6.488;2023-05-07T21:27:48;13.60;99.90
54192;DHT22;40101;53.002;6.488;2023-05-07T21:30:14;13.60;99.90
54192;DHT22;40101;53.002;6.488;2023-05-07T21:32:40;13.60;99.90
54192;DHT22;40101;53.002;6.488;2023-05-07T21:35:06;13.50;99.90
54192;DHT22;40101;53.002;6.488;2023-05-07T21:37:32;13.50;99.90
54192;DHT22;40101;53.002;6.488;2023-05-07T21:39:58;13.40;99.90
54192;DHT22;40101;53.002;6.488;2023-05-07T21:42:24;13.40;99.90
54192;DHT22;40101;53.002;6.488;2023-05-07T21:44:50;13.40;99.90
54192;DHT22;40101;53.002;6.488;2023-05-07T21:47:15;13.40;99.90
54192;DHT22;40101;53.002;6.488;2023-05-07T21:49:42;13.40;99.90
54192;DHT22;40101;53.002;6.488;2023-05-07T21:52:12;13.40;99.90
54192;DHT22;40101;53.002;6.488;2023-05-07T21:54:38;13.40;99.90
54192;DHT22;40101;53.002;6.488;2023-05-07T21:57:04;13.30;99.90
54192;DHT22;40101;53.002;6.488;2023-05-07T21:59:30;13.20;99.90
54192;DHT22;40101;53.002;6.488;2023-05-07T22:01:55;13.20;99.90
54192;DHT22;40101;53.002;6.488;2023-05-07T22:04:22;13.20;99.90
54192;DHT22;40101;53.002;6.488;2023-05-07T22:06:48;13.10;99.90
54192;DHT22;40101;53.002;6.488;2023-05-07T22:09:14;13.10;99.90
54192;DHT22;40101;53.002;6.488;2023-05-07T22:11:40;13.10;99.90
54192;DHT22;40101;53.002;6.488;2023-05-07T22:14:06;13.10;99.90
54192;DHT22;40101;53.002;6.488;2023-05-07T22:16:31;13.10;99.90
54192;DHT22;40101;53.002;6.488;2023-05-07T22:18:57;13.00;99.90
54192;DHT22;40101;53.002;6.488;2023-05-07T22:21:23;13.00;99.90
54192;DHT22;40101;53.002;6.488;2023-05-07T22:23:48;13.00;99.90
54192;DHT22;40101;53.002;6.488;2023-05-07T22:26:14;13.00;99.90
54192;DHT22;40101;53.002;6.488;2023-05-07T22:28:40;13.00;99.90
54192;DHT22;40101;53.002;6.488;2023-05-07T22:31:06;13.00;99.90
54192;DHT22;40101;53.002;6.488;2023-05-07T22:33:32;12.90;99.90
54192;DHT22;40101;53.002;6.488;2023-05-07T22:35:57;12.90;99.90
54192;DHT22;40101;53.002;6.488;2023-05-07T22:38:23;12.90;99.90
54192;DHT22;40101;53.002;6.488;2023-05-07T22:40:50;12.90;99.90
54192;DHT22;40101;53.002;6.488;2023-05-07T22:43:16;12.90;99.90
54192;DHT22;40101;53.002;6.488;2023-05-07T22:45:42;12.90;99.90
54192;DHT22;40101;53.002;6.488;2023-05-07T22:48:07;12.90;99.90
54192;DHT22;40101;53.002;6.488;2023-05-07T22:50:39;12.90;99.90
54192;DHT22;40101;53.002;6.488;2023-05-07T22:53:05;12.80;99.90
54192;DHT22;40101;53.002;6.488;2023-05-07T22:55:31;12.90;99.90
54192;DHT22;40101;53.002;6.488;2023-05-07T22:57:57;12.90;99.90
54192;DHT22;40101;53.002;6.488;2023-05-07T23:00:23;12.90;99.90
54192;DHT22;40101;53.002;6.488;2023-05-07T23:02:49;12.90;99.90
54192;DHT22;40101;53.002;6.488;2023-05-07T23:05:14;12.90;99.90
54192;DHT22;40101;53.002;6.488;2023-05-07T23:07:40;12.90;99.90
54192;DHT22;40101;53.002;6.488;2023-05-07T23:10:06;12.90;99.90
54192;DHT22;40101;53.002;6.488;2023-05-07T23:12:32;12.80;99.90
54192;DHT22;40101;53.002;6.488;2023-05-07T23:14:58;12.80;99.90
54192;DHT22;40101;53.002;6.488;2023-05-07T23:17:24;12.90;99.90
54192;DHT22;40101;53.002;6.488;2023-05-07T23:19:50;12.90;99.90
54192;DHT22;40101;53.002;6.488;2023-05-07T23:22:15;12.80;99.90
54192;DHT22;40101;53.002;6.488;2023-05-07T23:24:41;12.80;99.90
54192;DHT22;40101;53.002;6.488;2023-05-07T23:27:07;12.80;99.90
54192;DHT22;40101;53.002;6.488;2023-05-07T23:29:33;12.80;99.90
54192;DHT22;40101;53.002;6.488;2023-05-07T23:32:00;12.80;99.90
54192;DHT22;40101;53.002;6.488;2023-05-07T23:34:26;12.80;99.90
54192;DHT22;40101;53.002;6.488;2023-05-07T23:36:52;12.80;99.90
54192;DHT22;40101;53.002;6.488;2023-05-07T23:39:18;12.80;99.90
54192;DHT22;40101;53.002;6.488;2023-05-07T23:41:44;12.70;99.90
54192;DHT22;40101;53.002;6.488;2023-05-07T23:44:10;12.70;99.90
54192;DHT22;40101;53.002;6.488;2023-05-07T23:46:36;12.70;99.90
54192;DHT22;40101;53.002;6.488;2023-05-07T23:49:01;12.60;99.90
54192;DHT22;40101;53.002;6.488;2023-05-07T23:51:27;12.60;99.90
54192;DHT22;40101;53.002;6.488;2023-05-07T23:53:53;12.60;99.90
54192;DHT22;40101;53.002;6.488;2023-05-07T23:56:19;12.60;99.90
54192;DHT22;40101;53.002;6.488;2023-05-07T23:58:44;12.50;99.90
